createdAt,value
2022-10-05T18:47:07.334Z,18.11
2022-10-05T18:49:59.809Z,18.04
2022-10-05T18:52:29.311Z,17.98
2022-10-05T18:55:40.580Z,17.98
2022-10-05T18:58:39.573Z,17.99
2022-10-05T19:01:22.826Z,17.96
2022-10-05T19:04:03.338Z,17.80
2022-10-05T19:06:36.672Z,17.88
2022-10-05T19:09:12.661Z,17.90
2022-10-05T19:11:59.700Z,17.92
2022-10-05T19:14:37.440Z,17.70
2022-10-05T19:17:42.531Z,17.54
2022-10-05T19:20:25.813Z,17.22
2022-10-05T19:23:22.346Z,17.03
2022-10-05T19:25:58.773Z,16.97
2022-10-05T19:28:47.782Z,17.11
2022-10-05T19:31:21.081Z,16.99
2022-10-05T19:34:09.052Z,17.04
2022-10-05T19:36:44.415Z,16.98
2022-10-05T19:39:21.031Z,16.81
2022-10-05T19:41:57.509Z,16.73
2022-10-05T19:44:49.007Z,16.35
2022-10-05T19:47:47.852Z,16.50
2022-10-05T19:50:23.287Z,16.53
2022-10-05T19:52:57.088Z,16.59
2022-10-05T19:55:34.592Z,16.65
2022-10-05T19:58:01.541Z,16.56
2022-10-05T20:00:34.558Z,16.64
2022-10-05T20:03:11.862Z,16.70
2022-10-05T20:05:39.612Z,16.58
2022-10-05T20:08:06.766Z,16.59
2022-10-05T20:10:33.830Z,16.35
2022-10-05T20:13:02.302Z,16.20
2022-10-05T20:15:50.094Z,16.04
2022-10-05T20:18:53.975Z,15.92
2022-10-05T20:21:40.987Z,15.80
2022-10-05T20:24:08.293Z,15.73
2022-10-05T20:26:58.483Z,15.51
2022-10-05T20:29:25.026Z,15.48
2022-10-05T20:31:51.638Z,15.46
2022-10-05T20:34:18.123Z,15.46
2022-10-05T20:36:45.954Z,15.45
2022-10-05T20:39:15.582Z,15.43
2022-10-05T20:41:43.256Z,15.71
2022-10-05T20:44:10.302Z,15.59
2022-10-05T20:46:36.778Z,15.66
2022-10-05T20:49:04.151Z,15.70
2022-10-05T20:51:30.562Z,15.78
2022-10-05T20:53:57.230Z,15.76
2022-10-05T20:56:23.825Z,15.74
2022-10-05T20:58:50.550Z,15.67
2022-10-05T21:01:23.045Z,15.66
2022-10-05T21:03:50.651Z,15.70
2022-10-05T21:06:26.249Z,15.59
2022-10-05T21:08:52.818Z,15.56
2022-10-05T21:11:19.246Z,15.53
2022-10-05T21:13:45.791Z,15.48
2022-10-05T21:16:16.802Z,15.40
2022-10-05T21:18:46.906Z,15.15
2022-10-05T21:21:17.445Z,15.03
2022-10-05T21:23:45.430Z,15.46
2022-10-05T21:26:12.141Z,15.41
2022-10-05T21:28:39.511Z,15.40
2022-10-05T21:31:07.635Z,15.45
2022-10-05T21:33:34.810Z,15.55
2022-10-05T21:36:01.249Z,15.37
2022-10-05T21:38:28.675Z,15.29
2022-10-05T21:40:55.571Z,15.21
2022-10-05T21:43:22.091Z,15.45
2022-10-05T21:45:48.749Z,15.40
2022-10-05T21:48:16.535Z,15.33
2022-10-05T21:50:43.267Z,15.29
2022-10-05T21:53:12.361Z,15.25
2022-10-05T21:55:41.162Z,15.24
2022-10-05T21:58:08.415Z,15.21
2022-10-05T22:00:34.919Z,15.15
2022-10-05T22:03:01.548Z,15.07
2022-10-05T22:05:28.025Z,15.01
2022-10-05T22:07:54.892Z,14.91
2022-10-05T22:10:21.437Z,15.01
2022-10-05T22:12:48.129Z,14.85
2022-10-05T22:15:15.412Z,14.93
2022-10-05T22:17:42.389Z,14.91
2022-10-05T22:20:13.931Z,14.85
2022-10-05T22:22:40.476Z,14.85
2022-10-05T22:25:07.354Z,14.76
2022-10-05T22:27:35.257Z,14.81
2022-10-05T22:30:03.059Z,14.70
2022-10-05T22:32:29.727Z,14.56
2022-10-05T22:34:56.154Z,14.63
2022-10-05T22:37:22.614Z,14.77
2022-10-05T22:39:49.061Z,14.74
2022-10-05T22:42:15.534Z,14.83
2022-10-05T22:44:42.243Z,14.73
2022-10-05T22:47:08.693Z,14.67
2022-10-05T22:49:35.118Z,14.52
2022-10-05T22:52:01.542Z,14.53
2022-10-05T22:54:30.532Z,14.43
2022-10-05T22:56:58.192Z,14.58
2022-10-05T22:59:24.665Z,14.65
2022-10-05T23:01:51.113Z,14.61
2022-10-05T23:04:17.646Z,14.60
2022-10-05T23:06:44.076Z,14.61
2022-10-05T23:09:10.594Z,14.41
2022-10-05T23:11:36.992Z,14.48
2022-10-05T23:14:03.440Z,14.23
2022-10-05T23:16:30.117Z,14.21
2022-10-05T23:18:57.133Z,14.07
2022-10-05T23:21:25.534Z,14.14
2022-10-05T23:23:52.040Z,14.26
2022-10-05T23:26:23.785Z,14.21
2022-10-05T23:28:50.479Z,14.19
2022-10-05T23:31:20.772Z,14.19
2022-10-05T23:33:47.670Z,14.34
2022-10-05T23:36:17.062Z,14.17
2022-10-05T23:38:44.225Z,14.30
2022-10-05T23:41:11.394Z,14.26
2022-10-05T23:43:38.160Z,14.39
2022-10-05T23:46:06.734Z,14.34
2022-10-05T23:48:33.923Z,14.36
2022-10-05T23:51:00.808Z,14.30
2022-10-05T23:53:27.276Z,14.26
2022-10-05T23:55:54.027Z,14.10
2022-10-05T23:58:22.126Z,14.00
